This is the latest recevied weather packets stored in our database for station/object N5PRN. If no packets are shown the sender has not sent any weather packets the latest 10 day(s).
| Time | Temp. | Humidity | Pressure | Rain* | Wind** | Luminosity | Snow |
|---|---|---|---|---|---|---|---|
| 1777584384 | 17.22° C | 96% | 1011.8 hPa | 1.78 mm | - | 88 W/m² | - |
| 1777584080 | 17.22° C | 96% | 1012.5 hPa | 1.78 mm | - | 32 W/m² | - |
| 1777583775 | 17.22° C | 96% | 1012.2 hPa | 0 mm | - | 74 W/m² | - |
| 1777583475 | 17.22° C | 96% | 1012 hPa | 0 mm | - | 67 W/m² | - |
| 1777583169 | 17.22° C | 96% | 1012.4 hPa | 0 mm | - | 45 W/m² | - |
| 1777582865 | 17.22° C | 96% | 1012.1 hPa | 0 mm | - | 48 W/m² | - |
| 1777582563 | 17.22° C | 96% | 1012.2 hPa | 0 mm | - | 35 W/m² | - |
| 1777582257 | 17.22° C | 96% | 1012.2 hPa | 0 mm | - | 36 W/m² | - |
| 1777581955 | 17.22° C | 96% | 1012.1 hPa | 0 mm | - | 45 W/m² | - |
| 1777581650 | 17.22° C | 96% | 1011.6 hPa | 1.27 mm | - | 111 W/m² | - |
| 1777581344 | 17.22° C | 96% | 1011.9 hPa | 1.27 mm | - | 124 W/m² | - |
| 1777581033 | 17.22° C | 96% | 1012 hPa | 1.27 mm | - | 78 W/m² | - |
| 1777580732 | 17.22° C | 96% | 1012.4 hPa | 0 mm | - | 68 W/m² | - |
| 1777580429 | 17.22° C | 96% | 1012.6 hPa | 0 mm | - | 45 W/m² | - |
| 1777580125 | 17.22° C | 96% | 1013 hPa | 0 mm | - | 35 W/m² | - |
| 1777579822 | 17.22° C | 96% | 1012.9 hPa | 0 mm | - | 37 W/m² | - |
| 1777579521 | 17.22° C | 96% | 1012.7 hPa | 0 mm | - | 44 W/m² | - |
| 1777579215 | 17.22° C | 96% | 1012.7 hPa | 0 mm | - | 46 W/m² | - |
| 1777578911 | 17.22° C | 96% | 1012.8 hPa | 0 mm | - | 45 W/m² | - |
| 1777578606 | 17.22° C | 96% | 1012.9 hPa | 0 mm | - | 49 W/m² | - |
| 1777578301 | 17.22° C | 96% | 1012.6 hPa | 0 mm | - | 85 W/m² | - |
| 1777577997 | 17.22° C | 96% | 1012.5 hPa | 0 mm | - | 80 W/m² | - |
| 1777577697 | 17.22° C | 96% | 1012.7 hPa | 0 mm | - | 52 W/m² | - |
| 1777577395 | 17.22° C | 96% | 1012.4 hPa | 0 mm | - | 73 W/m² | - |
| 1777577090 | 17.22° C | 96% | 1012.5 hPa | 0 mm | - | 77 W/m² | - |
* Rain latest hour (hover to see other rain measurements)
** Current wind speed in m/s (hover to see current wind gust speed)